createdAt,value
2018-07-23T00:01:04.397Z,99733.64
2018-07-23T00:03:31.961Z,99727.55
2018-07-23T00:05:59.601Z,99734.73
2018-07-23T00:08:27.267Z,99736.58
2018-07-23T00:10:54.902Z,99739.30
2018-07-23T00:13:22.508Z,99740.53
2018-07-23T00:15:50.181Z,99740.98
2018-07-23T00:18:17.786Z,99746.64
2018-07-23T00:20:45.448Z,99740.61
2018-07-23T00:23:13.054Z,99740.41
2018-07-23T00:25:40.774Z,99742.70
2018-07-23T00:28:08.405Z,99746.70
2018-07-23T00:30:36.022Z,99746.31
2018-07-23T00:33:03.648Z,99744.34
2018-07-23T00:35:31.951Z,99745.92
2018-07-23T00:37:59.635Z,99741.09
2018-07-23T00:40:27.235Z,99735.33
2018-07-23T00:42:54.851Z,99736.84
2018-07-23T00:45:22.493Z,99736.66
2018-07-23T00:47:50.106Z,99737.17
2018-07-23T00:50:17.704Z,99733.23
2018-07-23T00:52:45.364Z,99733.42
2018-07-23T00:55:13.059Z,99731.52
2018-07-23T00:57:40.662Z,99734.94
2018-07-23T01:00:08.602Z,99730.33
2018-07-23T01:02:36.290Z,99729.24
2018-07-23T01:05:03.914Z,99730.52
2018-07-23T01:07:31.612Z,99735.08
2018-07-23T01:09:59.243Z,99730.06
2018-07-23T01:12:30.646Z,99731.78
2018-07-23T01:14:58.242Z,99737.17
2018-07-23T01:17:25.890Z,99734.11
2018-07-23T01:19:55.654Z,99740.02
2018-07-23T01:22:24.445Z,99734.00
2018-07-23T01:24:52.710Z,99743.95
2018-07-23T01:27:20.312Z,99749.36
2018-07-23T01:29:48.154Z,99746.51
2018-07-23T01:32:16.166Z,99753.67
2018-07-23T01:34:44.090Z,99754.72
2018-07-23T01:37:11.758Z,99754.00
2018-07-23T01:39:39.486Z,99755.84
2018-07-23T01:42:07.216Z,99762.72
2018-07-23T01:44:38.231Z,99757.74
2018-07-23T01:47:07.000Z,99762.33
2018-07-23T01:49:34.772Z,99760.53
2018-07-23T01:52:02.459Z,99761.69
2018-07-23T01:54:30.170Z,99763.92
2018-07-23T01:56:57.844Z,99766.70
2018-07-23T01:59:25.550Z,99770.02
2018-07-23T02:01:53.202Z,99766.77
2018-07-23T02:04:20.866Z,99773.61
2018-07-23T02:06:48.549Z,99769.17
2018-07-23T02:09:17.016Z,99765.17
2018-07-23T02:11:44.701Z,99767.69
2018-07-23T02:14:12.333Z,99768.23
2018-07-23T02:16:39.963Z,99776.41
2018-07-23T02:19:07.610Z,99771.44
2018-07-23T02:21:35.785Z,99769.67
2018-07-23T02:24:03.977Z,99768.27
2018-07-23T02:26:31.570Z,99761.61
2018-07-23T02:28:59.264Z,99775.98
2018-07-23T02:31:26.913Z,99766.00
2018-07-23T02:33:54.569Z,99773.59
2018-07-23T02:36:22.173Z,99771.66
2018-07-23T02:38:49.865Z,99766.93
2018-07-23T02:41:17.620Z,99771.25
2018-07-23T02:43:45.369Z,99768.80
2018-07-23T02:46:13.044Z,99767.14
2018-07-23T02:48:40.697Z,99770.93
2018-07-23T02:51:09.065Z,99769.83
2018-07-23T02:53:36.720Z,99776.32
2018-07-23T02:56:04.371Z,99776.47
2018-07-23T02:58:32.010Z,99777.45
2018-07-23T03:00:59.627Z,99777.12
2018-07-23T03:03:27.261Z,99778.22
2018-07-23T03:05:54.851Z,99719.86
2018-07-23T03:08:22.476Z,99783.31
2018-07-23T03:10:50.054Z,99784.05
2018-07-23T03:13:17.706Z,99786.72
2018-07-23T03:15:45.348Z,99784.34
2018-07-23T03:18:12.972Z,99793.08
2018-07-23T03:20:40.560Z,99796.96
2018-07-23T03:23:08.258Z,99796.13
2018-07-23T03:25:35.932Z,99796.16
2018-07-23T03:28:03.581Z,99792.81
2018-07-23T03:30:31.353Z,99792.72
2018-07-23T03:32:59.048Z,99790.82
2018-07-23T03:35:27.067Z,99795.91
2018-07-23T03:37:54.730Z,99801.58
2018-07-23T03:40:22.453Z,99806.55
2018-07-23T03:42:50.123Z,99807.33
2018-07-23T03:45:17.724Z,99807.95
2018-07-23T03:47:45.377Z,99808.48
2018-07-23T03:50:12.975Z,99817.81
2018-07-23T03:52:40.600Z,99817.21
2018-07-23T03:55:08.243Z,99816.20
2018-07-23T03:57:35.884Z,99830.86
2018-07-23T04:00:04.107Z,99828.56
2018-07-23T04:02:31.723Z,99824.98
2018-07-23T04:04:59.403Z,99829.66
2018-07-23T04:07:27.086Z,99829.45
2018-07-23T04:09:54.735Z,99833.77
2018-07-23T04:12:22.310Z,99835.56
2018-07-23T04:14:49.980Z,99823.97
2018-07-23T04:17:18.666Z,99822.73
2018-07-23T04:19:46.320Z,99826.13
2018-07-23T04:22:13.984Z,99832.38
2018-07-23T04:24:41.598Z,99838.23
2018-07-23T04:27:09.220Z,99843.13
2018-07-23T04:29:36.894Z,99837.06
2018-07-23T04:32:04.586Z,99839.52
2018-07-23T04:34:32.224Z,99839.86
2018-07-23T04:36:59.833Z,99845.31
2018-07-23T04:39:27.423Z,99842.63
2018-07-23T04:41:55.042Z,99846.20
2018-07-23T04:44:22.653Z,99816.95
2018-07-23T04:46:50.269Z,99847.31
2018-07-23T04:49:17.965Z,99847.72
2018-07-23T04:51:45.572Z,99848.06
2018-07-23T04:54:13.287Z,99852.55
2018-07-23T04:56:40.897Z,99850.09
2018-07-23T04:59:08.503Z,99850.67
2018-07-23T05:01:36.077Z,99856.29
2018-07-23T05:04:03.892Z,99858.64
2018-07-23T05:06:31.487Z,99859.89
2018-07-23T05:08:59.084Z,99863.35
2018-07-23T05:11:26.691Z,99869.44
2018-07-23T05:13:54.343Z,99871.48
2018-07-23T05:16:21.932Z,99861.13
2018-07-23T05:18:49.526Z,99868.62
2018-07-23T05:21:17.090Z,99866.64
2018-07-23T05:23:44.737Z,99864.11
2018-07-23T05:26:12.384Z,99864.06
2018-07-23T05:28:39.930Z,99867.42
2018-07-23T05:31:07.604Z,99871.34
2018-07-23T05:33:35.205Z,99868.62
2018-07-23T05:36:02.841Z,99872.63
2018-07-23T05:38:30.612Z,99876.97
2018-07-23T05:40:58.271Z,99872.92
2018-07-23T05:43:25.892Z,99865.55
2018-07-23T05:45:53.526Z,99872.48
2018-07-23T05:48:27.993Z,99873.25
2018-07-23T05:50:55.638Z,99879.09
2018-07-23T05:53:23.270Z,99881.64
2018-07-23T05:55:50.883Z,99881.28
2018-07-23T05:58:18.439Z,99873.08
2018-07-23T06:00:46.063Z,99883.55
2018-07-23T06:03:16.489Z,99883.90
2018-07-23T06:05:44.149Z,99883.77
2018-07-23T06:08:11.749Z,99888.38
2018-07-23T06:10:39.603Z,99888.94
2018-07-23T06:13:07.342Z,99881.27
2018-07-23T06:15:34.988Z,99891.17
2018-07-23T06:18:02.641Z,99894.21
2018-07-23T06:20:30.253Z,99887.09
2018-07-23T06:22:57.940Z,99891.38
2018-07-23T06:25:25.547Z,99899.16
2018-07-23T06:27:53.415Z,99901.66
2018-07-23T06:30:21.095Z,99894.31
2018-07-23T06:32:48.653Z,99890.55
2018-07-23T06:35:16.328Z,99905.34
2018-07-23T06:37:43.925Z,99897.42
2018-07-23T06:40:11.498Z,99901.17
2018-07-23T06:42:39.082Z,99902.52
2018-07-23T06:45:06.679Z,99903.00
2018-07-23T06:47:34.505Z,99905.34
2018-07-23T06:50:02.510Z,99903.70
2018-07-23T06:52:30.114Z,99910.08
2018-07-23T06:54:59.039Z,99910.50
2018-07-23T06:57:26.740Z,99907.81
2018-07-23T06:59:54.333Z,99878.59
2018-07-23T07:02:21.961Z,99901.23
2018-07-23T07:04:49.573Z,99898.77
2018-07-23T07:07:17.209Z,99905.40
2018-07-23T07:09:44.834Z,99908.91
2018-07-23T07:12:12.389Z,99903.41
2018-07-23T07:14:39.961Z,99910.36
2018-07-23T07:17:07.537Z,99906.74
2018-07-23T07:19:35.164Z,99907.30
2018-07-23T07:22:02.811Z,99908.16
2018-07-23T07:24:30.411Z,99907.55
2018-07-23T07:26:58.087Z,99909.48
2018-07-23T07:29:25.752Z,99906.62
2018-07-23T07:31:53.389Z,99913.03
2018-07-23T07:34:21.010Z,99912.00
2018-07-23T07:36:48.639Z,99914.20
2018-07-23T07:39:16.259Z,99915.86
2018-07-23T07:41:43.856Z,99914.97
2018-07-23T07:44:11.461Z,99905.30
2018-07-23T07:46:40.174Z,99912.24
2018-07-23T07:49:07.908Z,99909.56
2018-07-23T07:51:35.555Z,99913.05
2018-07-23T07:54:03.290Z,99911.63
2018-07-23T07:56:31.636Z,99919.52
2018-07-23T07:58:59.279Z,99912.32
2018-07-23T08:01:26.870Z,99909.84
2018-07-23T08:03:54.548Z,99915.42
2018-07-23T08:06:22.210Z,99915.87
2018-07-23T08:08:49.901Z,99916.47
2018-07-23T08:11:17.556Z,99912.72
2018-07-23T08:13:45.482Z,99911.77
2018-07-23T08:16:13.130Z,99912.92
2018-07-23T08:18:40.880Z,99921.65
2018-07-23T08:21:08.526Z,99916.22
2018-07-23T08:23:36.220Z,99918.41
2018-07-23T08:26:04.124Z,99913.06
2018-07-23T08:28:31.784Z,99921.69
2018-07-23T08:30:59.475Z,99916.18
2018-07-23T08:33:27.089Z,99922.20
2018-07-23T08:35:54.747Z,99929.75
2018-07-23T08:38:22.439Z,99920.81
2018-07-23T08:40:50.128Z,99921.45
2018-07-23T08:43:17.972Z,99919.08
2018-07-23T08:45:45.631Z,99918.67
2018-07-23T08:48:13.252Z,99926.03
2018-07-23T08:50:40.888Z,99920.75
2018-07-23T08:53:08.674Z,99922.52
2018-07-23T08:55:36.372Z,99922.59
2018-07-23T08:58:04.044Z,99896.86
2018-07-23T09:00:31.681Z,99923.13
2018-07-23T09:02:59.360Z,99924.95
2018-07-23T09:05:26.984Z,99912.13
2018-07-23T09:07:54.668Z,99918.79
2018-07-23T09:10:22.346Z,99920.24
2018-07-23T09:12:50.017Z,99922.26
2018-07-23T09:15:17.674Z,99919.63
2018-07-23T09:17:45.314Z,99919.53
2018-07-23T09:20:12.962Z,99929.50
2018-07-23T09:22:40.567Z,99926.35
2018-07-23T09:25:09.204Z,99921.30
2018-07-23T09:27:39.281Z,99923.83
2018-07-23T09:30:11.594Z,99922.27
2018-07-23T09:32:39.249Z,99927.14
2018-07-23T09:35:06.888Z,99928.73
2018-07-23T09:37:35.032Z,99921.20
2018-07-23T09:40:02.689Z,99918.32
2018-07-23T09:42:30.480Z,99918.34
2018-07-23T09:44:58.158Z,99915.11
2018-07-23T09:47:25.782Z,99920.36
2018-07-23T09:49:53.411Z,99909.13
2018-07-23T09:52:21.067Z,99925.56
2018-07-23T09:54:48.690Z,99914.19
2018-07-23T09:59:50.506Z,99912.93
2018-07-23T10:02:18.068Z,99909.37
2018-07-23T10:04:45.662Z,99911.61
2018-07-23T10:07:13.248Z,99909.02
2018-07-23T10:09:40.912Z,99900.08
2018-07-23T10:12:08.571Z,99902.40
2018-07-23T10:14:36.212Z,99901.08
2018-07-23T10:17:03.852Z,99903.60
2018-07-23T10:19:31.453Z,99898.09
2018-07-23T10:21:59.155Z,99896.75
2018-07-23T10:24:26.891Z,99896.47
2018-07-23T10:26:54.468Z,99903.09
2018-07-23T10:29:22.003Z,99904.75
2018-07-23T10:31:49.615Z,99891.70
2018-07-23T10:34:17.191Z,99890.34
2018-07-23T10:36:44.844Z,99893.19
2018-07-23T10:39:12.540Z,99889.02
2018-07-23T10:41:40.245Z,99890.47
2018-07-23T10:44:07.892Z,99890.91
2018-07-23T10:46:35.488Z,99886.36
2018-07-23T10:49:03.136Z,99890.38
2018-07-23T10:51:30.781Z,99886.42
2018-07-23T10:53:58.563Z,99883.45
2018-07-23T10:56:26.316Z,99882.17
2018-07-23T10:58:53.940Z,99886.34
2018-07-23T11:01:21.570Z,99880.53
2018-07-23T11:03:49.228Z,99879.97
2018-07-23T11:06:16.809Z,99881.25
2018-07-23T11:08:44.369Z,99884.94
2018-07-23T11:11:11.928Z,99889.41
2018-07-23T11:13:39.549Z,99886.55
2018-07-23T11:16:07.133Z,99883.09
2018-07-23T11:18:34.777Z,99874.11
2018-07-23T11:21:02.458Z,99872.37
2018-07-23T11:23:30.090Z,99877.17
2018-07-23T11:25:57.649Z,99870.38
2018-07-23T11:28:25.271Z,99873.06
2018-07-23T11:30:52.877Z,99868.05
2018-07-23T11:33:20.497Z,99868.41
2018-07-23T11:35:48.075Z,99863.44
2018-07-23T11:38:15.676Z,99869.28
2018-07-23T11:40:43.259Z,99871.01
2018-07-23T11:43:10.834Z,99873.34
2018-07-23T11:45:38.441Z,99875.34
2018-07-23T11:48:06.015Z,99864.98
2018-07-23T11:50:33.691Z,99871.78
2018-07-23T11:53:01.288Z,99864.95
2018-07-23T11:55:28.810Z,99861.15
2018-07-23T11:57:56.428Z,99867.45
2018-07-23T12:00:23.980Z,99867.11
2018-07-23T12:02:51.578Z,99853.28
2018-07-23T12:05:19.154Z,99848.52
2018-07-23T12:07:46.750Z,99863.75
2018-07-23T12:10:14.306Z,99853.36
2018-07-23T12:12:42.316Z,99853.63
2018-07-23T12:15:10.082Z,99853.79
2018-07-23T12:17:37.850Z,99851.33
2018-07-23T12:20:05.736Z,99852.28
2018-07-23T12:22:33.342Z,99854.93
2018-07-23T12:25:01.102Z,99851.27
2018-07-23T12:27:28.675Z,99852.37
2018-07-23T12:29:56.397Z,99859.77
2018-07-23T12:32:23.950Z,99846.50
2018-07-23T12:34:51.593Z,99844.39
2018-07-23T12:37:19.213Z,99840.70
2018-07-23T12:39:46.881Z,99843.22
2018-07-23T12:42:14.425Z,99850.73
2018-07-23T12:44:42.012Z,99842.09
2018-07-23T12:47:09.699Z,99834.24
2018-07-23T12:49:37.312Z,99836.14
2018-07-23T12:52:04.896Z,99841.72
2018-07-23T12:54:32.453Z,99838.61
2018-07-23T12:57:00.043Z,99834.70
2018-07-23T12:59:27.685Z,99835.39
2018-07-23T13:01:55.281Z,99833.72
2018-07-23T13:04:22.952Z,99830.22
2018-07-23T13:06:50.569Z,99837.12
2018-07-23T13:09:18.167Z,99842.46
2018-07-23T13:11:45.709Z,99837.80
2018-07-23T13:14:13.381Z,99838.27
2018-07-23T13:16:40.944Z,99838.87
2018-07-23T13:19:08.579Z,99840.06
2018-07-23T13:21:36.103Z,99845.09
2018-07-23T13:24:03.718Z,99831.25
2018-07-23T13:26:31.428Z,99837.62
2018-07-23T13:28:59.691Z,99843.73
2018-07-23T13:31:27.367Z,99835.80
2018-07-23T13:33:54.961Z,99837.15
2018-07-23T13:36:22.872Z,99841.94
2018-07-23T13:38:50.496Z,99843.27
2018-07-23T13:41:18.071Z,99836.75
2018-07-23T13:43:45.664Z,99834.95
2018-07-23T13:46:13.394Z,99832.87
2018-07-23T13:48:41.042Z,99820.34
2018-07-23T13:51:08.608Z,99819.61
2018-07-23T13:53:36.241Z,99819.56
2018-07-23T13:56:03.849Z,99822.29
2018-07-23T13:58:31.480Z,99828.29
2018-07-23T14:00:59.049Z,99823.51
2018-07-23T14:03:26.628Z,99825.98
2018-07-23T14:05:54.349Z,99822.69
2018-07-23T14:08:21.947Z,99822.04
2018-07-23T14:10:49.556Z,99816.27
2018-07-23T14:13:17.241Z,99815.61
2018-07-23T14:15:44.806Z,99823.54
2018-07-23T14:18:12.394Z,99814.32
2018-07-23T14:20:40.021Z,99819.48
2018-07-23T14:23:07.685Z,99815.11
2018-07-23T14:25:35.354Z,99821.63
2018-07-23T14:28:03.010Z,99813.48
2018-07-23T14:30:30.703Z,99819.96
2018-07-23T14:32:58.276Z,99812.28
2018-07-23T14:35:25.904Z,99809.34
2018-07-23T14:37:53.443Z,99806.89
2018-07-23T14:40:21.046Z,99800.72
2018-07-23T14:42:48.646Z,99799.48
2018-07-23T14:45:16.313Z,99794.45
2018-07-23T14:47:43.945Z,99797.16
2018-07-23T14:50:11.551Z,99794.97
2018-07-23T14:52:39.280Z,99793.28
2018-07-23T14:55:06.915Z,99787.09
2018-07-23T14:57:34.644Z,99797.98
2018-07-23T15:00:02.282Z,99796.69
2018-07-23T15:02:29.899Z,99784.66
2018-07-23T15:04:57.607Z,99779.97
2018-07-23T15:07:25.315Z,99786.62
2018-07-23T15:09:52.950Z,99790.06
2018-07-23T15:12:20.630Z,99779.41
2018-07-23T15:14:48.233Z,99789.02
2018-07-23T15:17:15.924Z,99781.17
2018-07-23T15:19:43.508Z,99786.74
2018-07-23T15:22:11.269Z,99775.52
2018-07-23T15:24:38.852Z,99776.95
2018-07-23T15:27:06.738Z,99777.84
2018-07-23T15:29:34.494Z,99773.59
2018-07-23T15:32:02.354Z,99769.31
2018-07-23T15:34:30.170Z,99771.58
2018-07-23T15:36:57.938Z,99761.14
2018-07-23T15:39:25.586Z,99769.26
2018-07-23T15:41:53.433Z,99774.42
2018-07-23T15:44:21.303Z,99775.44
2018-07-23T15:46:48.826Z,99777.98
2018-07-23T15:49:16.530Z,99773.52
2018-07-23T15:51:44.519Z,99782.49
2018-07-23T15:54:12.104Z,99767.85
2018-07-23T15:56:39.799Z,99765.48
2018-07-23T15:59:07.437Z,99764.87
2018-07-23T16:01:35.033Z,99770.30
2018-07-23T16:04:02.705Z,99760.83
2018-07-23T16:06:30.289Z,99756.68
2018-07-23T16:08:57.946Z,99761.01
2018-07-23T16:11:25.609Z,99762.70
2018-07-23T16:13:53.279Z,99767.00
2018-07-23T16:16:21.093Z,99757.27
2018-07-23T16:18:48.746Z,99762.64
2018-07-23T16:21:16.365Z,99765.25
2018-07-23T16:23:43.918Z,99764.94
2018-07-23T16:26:11.538Z,99764.47
2018-07-23T16:28:39.214Z,99762.41
2018-07-23T16:31:06.797Z,99766.50
2018-07-23T16:33:34.696Z,99766.23
2018-07-23T16:36:02.321Z,99758.20
2018-07-23T16:38:29.873Z,99760.23
2018-07-23T16:40:57.479Z,99764.34
2018-07-23T16:43:25.139Z,99766.02
2018-07-23T16:45:52.719Z,99771.25
2018-07-23T16:48:20.405Z,99761.19
2018-07-23T16:50:48.060Z,99768.50
2018-07-23T16:53:15.708Z,99762.48
2018-07-23T16:55:43.242Z,99764.02
2018-07-23T16:58:10.890Z,99755.22
2018-07-23T17:00:38.551Z,99758.91
2018-07-23T17:03:06.142Z,99752.80
2018-07-23T17:05:34.613Z,99755.30
2018-07-23T17:08:02.212Z,99763.70
2018-07-23T17:10:29.822Z,99752.46
2018-07-23T17:12:57.494Z,99751.80
2018-07-23T17:15:25.098Z,99759.33
2018-07-23T17:17:52.939Z,99765.73
2018-07-23T17:20:20.549Z,99764.78
2018-07-23T17:22:48.157Z,99765.64
2018-07-23T17:25:15.795Z,99776.96
2018-07-23T17:27:43.356Z,99772.77
2018-07-23T17:30:10.984Z,99781.66
2018-07-23T17:32:38.591Z,99781.78
2018-07-23T17:35:06.153Z,99781.84
2018-07-23T17:37:33.772Z,99782.06
2018-07-23T17:40:01.383Z,99780.34
2018-07-23T17:42:29.089Z,99784.52
2018-07-23T17:44:56.684Z,99783.88
2018-07-23T17:47:24.389Z,99793.58
2018-07-23T17:49:52.066Z,99790.00
2018-07-23T17:52:19.946Z,99792.50
2018-07-23T17:54:47.592Z,99795.75
2018-07-23T17:57:15.216Z,99802.05
2018-07-23T17:59:42.846Z,99800.40
2018-07-23T18:02:10.520Z,99806.91
2018-07-23T18:04:38.201Z,99802.84
2018-07-23T18:07:05.924Z,99809.91
2018-07-23T18:09:33.592Z,99808.77
2018-07-23T18:12:01.216Z,99802.81
2018-07-23T18:14:29.198Z,99804.48
2018-07-23T18:16:56.860Z,99803.98
2018-07-23T18:19:24.808Z,99808.03
2018-07-23T18:21:53.344Z,99813.16
2018-07-23T18:24:21.069Z,99818.78
2018-07-23T18:26:48.742Z,99810.80
2018-07-23T18:29:21.070Z,99811.98
2018-07-23T18:31:48.740Z,99817.58
2018-07-23T18:34:16.426Z,99811.34
2018-07-23T18:36:44.070Z,99817.81
2018-07-23T18:39:12.349Z,99815.88
2018-07-23T18:41:40.506Z,99817.39
2018-07-23T18:44:08.575Z,99822.10
2018-07-23T18:46:36.368Z,99818.95
2018-07-23T18:49:33.319Z,99817.20
2018-07-23T18:52:01.031Z,99821.36
2018-07-23T18:54:29.760Z,99825.55
2018-07-23T18:56:59.600Z,99817.84
2018-07-23T18:59:27.218Z,99831.89
2018-07-23T19:01:56.061Z,99831.47
2018-07-23T19:04:23.725Z,99836.67
2018-07-23T19:06:51.372Z,99839.82
2018-07-23T19:09:20.244Z,99845.62
2018-07-23T19:11:49.112Z,99849.23
2018-07-23T19:14:17.190Z,99849.35
2018-07-23T19:16:45.352Z,99853.91
2018-07-23T19:19:13.048Z,99855.25
2018-07-23T19:21:40.682Z,99858.89
2018-07-23T19:24:08.331Z,99863.80
2018-07-23T19:26:35.994Z,99859.64
2018-07-23T19:29:03.646Z,99860.38
2018-07-23T19:31:31.336Z,99861.80
2018-07-23T19:34:00.246Z,99865.17
2018-07-23T19:36:28.084Z,99870.61
2018-07-23T19:38:56.034Z,99869.25
2018-07-23T19:41:24.692Z,99867.18
2018-07-23T19:43:52.631Z,99868.28
2018-07-23T19:46:22.656Z,99858.66
2018-07-23T19:48:50.258Z,99865.20
2018-07-23T19:51:17.840Z,99872.47
2018-07-23T19:53:45.460Z,99872.73
2018-07-23T19:56:13.198Z,99878.38
2018-07-23T19:58:41.507Z,99876.46
2018-07-23T20:01:09.424Z,99884.28
2018-07-23T20:03:37.074Z,99880.63
2018-07-23T20:06:04.978Z,99884.22
2018-07-23T20:08:32.765Z,99890.06
2018-07-23T20:11:00.586Z,99882.62
2018-07-23T20:13:28.379Z,99889.91
2018-07-23T20:15:56.761Z,99885.79
2018-07-23T20:18:24.583Z,99886.99
2018-07-23T20:20:52.319Z,99888.99
2018-07-23T20:23:20.040Z,99887.34
2018-07-23T20:25:47.799Z,99893.42
2018-07-23T20:28:15.583Z,99894.83
2018-07-23T20:30:43.503Z,99896.55
2018-07-23T20:33:11.266Z,99895.96
2018-07-23T20:35:38.890Z,99892.05
2018-07-23T20:38:06.599Z,99891.47
2018-07-23T20:40:34.324Z,99889.47
2018-07-23T20:43:01.987Z,99887.91
2018-07-23T20:45:29.649Z,99883.83
2018-07-23T20:47:57.712Z,99880.27
2018-07-23T20:50:25.587Z,99893.50
2018-07-23T20:52:53.192Z,99890.91
2018-07-23T20:55:20.786Z,99885.44
2018-07-23T20:57:48.428Z,99887.73
2018-07-23T21:00:16.218Z,99890.23
2018-07-23T21:02:43.738Z,99894.45
2018-07-23T21:05:11.330Z,99894.58
2018-07-23T21:07:38.962Z,99898.44
2018-07-23T21:10:06.626Z,99900.85
2018-07-23T21:12:34.241Z,99902.72
2018-07-23T21:15:01.792Z,99898.75
2018-07-23T21:17:29.405Z,99894.34
2018-07-23T21:19:56.963Z,99900.56
2018-07-23T21:22:24.609Z,99906.03
2018-07-23T21:24:52.193Z,99901.18
2018-07-23T21:27:19.792Z,99903.96
2018-07-23T21:29:47.394Z,99909.45
2018-07-23T21:32:15.249Z,99908.73
2018-07-23T21:34:42.788Z,99911.03
2018-07-23T21:37:10.412Z,99907.55
2018-07-23T21:39:38.061Z,99904.38
2018-07-23T21:42:05.921Z,99905.90
2018-07-23T21:44:33.500Z,99907.26
2018-07-23T21:47:01.108Z,99904.88
2018-07-23T21:49:28.821Z,99911.91
2018-07-23T21:51:56.562Z,99908.09
2018-07-23T21:54:24.080Z,99911.94
2018-07-23T21:56:51.682Z,99907.72
2018-07-23T21:59:19.288Z,99919.16
2018-07-23T22:01:46.910Z,99913.41
2018-07-23T22:04:14.509Z,99919.48
2018-07-23T22:06:42.116Z,99917.23
2018-07-23T22:09:09.774Z,99921.46
2018-07-23T22:11:37.476Z,99923.41
2018-07-23T22:14:06.280Z,99923.92
2018-07-23T22:16:33.842Z,99921.95
2018-07-23T22:19:01.385Z,99927.11
2018-07-23T22:21:29.003Z,99927.92
2018-07-23T22:23:56.522Z,99933.37
2018-07-23T22:26:24.091Z,99936.05
2018-07-23T22:28:51.651Z,99942.63
2018-07-23T22:31:19.278Z,99942.50
2018-07-23T22:33:46.969Z,99938.84
2018-07-23T22:36:14.480Z,99932.92
2018-07-23T22:38:41.974Z,99943.42
2018-07-23T22:41:09.566Z,99939.41
2018-07-23T22:43:37.200Z,99941.17
2018-07-23T22:46:04.780Z,99937.16
2018-07-23T22:48:32.539Z,99937.47
2018-07-23T22:51:00.390Z,99932.34
2018-07-23T22:53:27.958Z,99934.12
2018-07-23T22:55:55.437Z,99930.49
2018-07-23T22:58:23.000Z,99928.80
2018-07-23T23:00:50.549Z,99924.21
2018-07-23T23:03:18.095Z,99929.28
2018-07-23T23:05:45.664Z,99926.61
2018-07-23T23:08:13.165Z,99931.15
2018-07-23T23:10:40.885Z,99930.90
2018-07-23T23:13:08.417Z,99933.87
2018-07-23T23:15:35.945Z,99929.25
2018-07-23T23:18:03.489Z,99929.05
2018-07-23T23:20:31.075Z,99927.01
2018-07-23T23:22:58.950Z,99928.91
2018-07-23T23:25:26.544Z,99928.48
2018-07-23T23:27:54.104Z,99929.39
2018-07-23T23:30:21.705Z,99931.44
2018-07-23T23:32:49.304Z,99923.18
2018-07-23T23:35:16.845Z,99927.75
2018-07-23T23:37:44.348Z,99926.25
2018-07-23T23:40:11.949Z,99931.88
2018-07-23T23:42:39.474Z,99929.22
2018-07-23T23:45:07.028Z,99928.75
2018-07-23T23:47:34.554Z,99925.66
2018-07-23T23:50:02.159Z,99923.93
2018-07-23T23:52:29.737Z,99923.51
2018-07-23T23:54:57.291Z,99917.98
2018-07-23T23:57:24.875Z,99919.58
2018-07-23T23:59:52.521Z,99919.51
